createdAt,value
2018-05-17T00:00:28.795Z,17.10
2018-05-17T00:02:56.793Z,16.87
2018-05-17T00:05:24.873Z,17.33
2018-05-17T00:07:52.902Z,16.97
2018-05-17T00:10:20.911Z,17.20
2018-05-17T00:12:48.965Z,16.60
2018-05-17T00:15:17.773Z,16.67
2018-05-17T00:17:45.790Z,16.37
2018-05-17T00:20:13.846Z,16.20
2018-05-17T00:22:41.938Z,16.13
2018-05-17T00:25:10.038Z,17.77
2018-05-17T00:27:38.875Z,17.20
2018-05-17T00:30:06.969Z,15.77
2018-05-17T00:32:35.090Z,16.97
2018-05-17T00:35:03.174Z,16.30
2018-05-17T00:37:31.323Z,17.47
2018-05-17T00:40:00.234Z,18.00
2018-05-17T00:42:28.317Z,16.97
2018-05-17T00:44:56.419Z,18.57
2018-05-17T00:47:24.479Z,17.73
2018-05-17T00:49:52.640Z,18.47
2018-05-17T00:52:20.808Z,18.13
2018-05-17T00:54:49.654Z,18.90
2018-05-17T00:57:17.702Z,18.87
2018-05-17T00:59:45.710Z,17.80
2018-05-17T01:02:14.539Z,18.00
2018-05-17T01:04:42.603Z,20.03
2018-05-17T01:07:10.701Z,19.90
2018-05-17T01:09:38.751Z,18.50
2018-05-17T01:12:06.874Z,18.77
2018-05-17T01:14:34.925Z,19.27
2018-05-17T01:17:02.962Z,19.33
2018-05-17T01:19:31.114Z,19.13
2018-05-17T01:21:59.962Z,18.40
2018-05-17T01:24:28.068Z,18.40
2018-05-17T01:26:56.951Z,19.23
2018-05-17T01:29:25.789Z,21.33
2018-05-17T01:31:53.921Z,19.53
2018-05-17T01:34:22.749Z,20.27
2018-05-17T01:37:02.578Z,21.67
2018-05-17T01:39:30.724Z,21.53
2018-05-17T01:41:59.608Z,22.07
2018-05-17T01:44:27.720Z,23.73
2018-05-17T01:46:55.790Z,22.33
2018-05-17T01:49:23.778Z,23.53
2018-05-17T01:51:51.900Z,23.47
2018-05-17T01:54:20.044Z,23.37
2018-05-17T01:56:48.117Z,23.33
2018-05-17T01:59:16.176Z,23.90
2018-05-17T02:01:44.333Z,22.93
2018-05-17T02:04:12.443Z,24.33
2018-05-17T02:06:40.466Z,24.60
2018-05-17T02:09:08.689Z,23.10
2018-05-17T02:11:36.794Z,24.00
2018-05-17T02:14:05.560Z,23.07
2018-05-17T02:16:33.586Z,25.33
2018-05-17T02:19:01.646Z,24.33
2018-05-17T02:21:29.773Z,25.03
2018-05-17T02:23:57.890Z,23.70
2018-05-17T02:26:25.989Z,23.83
2018-05-17T02:28:54.006Z,25.70
2018-05-17T02:31:22.151Z,25.00
2018-05-17T02:33:50.179Z,25.20
2018-05-17T02:36:18.209Z,25.90
2018-05-17T02:38:46.312Z,24.23
2018-05-17T02:41:15.168Z,24.37
2018-05-17T02:43:43.214Z,25.33
2018-05-17T02:46:11.289Z,22.90
2018-05-17T02:48:39.291Z,24.03
2018-05-17T02:51:07.340Z,24.17
2018-05-17T02:53:35.485Z,23.10
2018-05-17T02:56:03.590Z,23.47
2018-05-17T02:58:31.588Z,24.60
2018-05-17T03:01:00.500Z,24.40
2018-05-17T03:03:28.578Z,24.40
2018-05-17T03:05:56.662Z,25.23
2018-05-17T03:08:24.695Z,23.67
2018-05-17T03:10:53.033Z,22.20
2018-05-17T03:13:21.131Z,20.10
2018-05-17T03:15:49.262Z,20.87
2018-05-17T03:18:17.301Z,17.07
2018-05-17T03:20:46.162Z,17.87
2018-05-17T03:23:14.249Z,15.67
2018-05-17T03:25:42.327Z,15.77
2018-05-17T03:28:11.142Z,12.97
2018-05-17T03:30:39.203Z,11.00
2018-05-17T03:33:08.012Z,11.10
2018-05-17T03:35:36.036Z,11.33
2018-05-17T03:38:04.110Z,10.87
2018-05-17T03:40:32.210Z,11.53
2018-05-17T03:43:00.985Z,10.73
2018-05-17T03:45:29.877Z,11.13
2018-05-17T03:47:58.705Z,12.83
2018-05-17T03:50:26.744Z,11.00
2018-05-17T03:52:55.574Z,12.23
2018-05-17T03:55:23.656Z,12.67
2018-05-17T03:57:51.795Z,13.53
2018-05-17T04:00:19.882Z,14.00
2018-05-17T04:02:59.676Z,13.77
2018-05-17T04:05:39.686Z,15.37
2018-05-17T04:08:07.777Z,16.53
2018-05-17T04:10:35.877Z,16.07
2018-05-17T04:13:04.034Z,16.77
2018-05-17T04:15:32.039Z,17.53
2018-05-17T04:18:00.917Z,16.47
2018-05-17T04:20:29.058Z,18.43
2018-05-17T04:22:57.069Z,21.17
2018-05-17T04:25:25.860Z,20.53
2018-05-17T04:27:54.672Z,21.37
2018-05-17T04:30:22.743Z,23.73
2018-05-17T04:32:50.814Z,21.50
2018-05-17T04:35:18.990Z,23.40
2018-05-17T04:37:47.031Z,22.90
2018-05-17T04:40:15.829Z,25.37
2018-05-17T04:42:44.641Z,24.10
2018-05-17T04:45:12.696Z,22.40
2018-05-17T04:47:41.608Z,25.57
2018-05-17T04:50:09.696Z,23.77
2018-05-17T04:52:37.714Z,22.47
2018-05-17T04:55:05.812Z,23.50
2018-05-17T04:57:34.001Z,23.30
2018-05-17T05:00:02.281Z,21.20
2018-05-17T05:02:30.322Z,19.47
2018-05-17T05:04:59.227Z,20.30
2018-05-17T05:07:28.154Z,20.63
2018-05-17T05:09:56.222Z,19.37
2018-05-17T05:12:25.089Z,19.10
2018-05-17T05:14:53.209Z,19.70
2018-05-17T05:17:21.238Z,19.57
2018-05-17T05:19:49.289Z,16.60
2018-05-17T05:22:18.108Z,16.77
2018-05-17T05:24:46.147Z,16.37
2018-05-17T05:27:15.028Z,15.00
2018-05-17T05:29:43.815Z,15.00
2018-05-17T05:32:11.863Z,16.47
2018-05-17T05:34:39.981Z,16.73
2018-05-17T05:37:07.999Z,15.97
2018-05-17T05:39:36.031Z,16.00
2018-05-17T05:42:04.164Z,18.40
2018-05-17T05:44:32.213Z,17.50
2018-05-17T05:47:00.321Z,15.83
2018-05-17T05:49:29.171Z,17.13
2018-05-17T05:51:57.310Z,17.60
2018-05-17T05:54:25.411Z,17.27
2018-05-17T05:56:53.460Z,14.13
2018-05-17T05:59:21.522Z,14.00
2018-05-17T06:01:49.626Z,13.10
2018-05-17T06:04:18.514Z,13.70
2018-05-17T06:06:46.605Z,9.63
2018-05-17T06:09:14.679Z,10.50
2018-05-17T06:11:42.698Z,11.20
2018-05-17T06:14:10.854Z,10.77
2018-05-17T06:16:39.681Z,8.37
2018-05-17T06:19:07.729Z,9.23
2018-05-17T06:21:36.504Z,9.33
2018-05-17T06:24:05.340Z,11.40
2018-05-17T06:26:33.401Z,9.10
2018-05-17T06:29:01.509Z,9.90
2018-05-17T06:31:29.687Z,10.00
2018-05-17T06:33:57.743Z,10.27
2018-05-17T06:36:25.846Z,9.47
2018-05-17T06:38:53.961Z,10.80
2018-05-17T06:41:21.946Z,9.87
2018-05-17T06:43:49.968Z,9.60
2018-05-17T06:46:18.830Z,10.20
2018-05-17T06:48:46.946Z,10.20
2018-05-17T06:51:15.766Z,11.67
2018-05-17T06:53:43.859Z,10.67
2018-05-17T06:56:11.988Z,10.57
2018-05-17T06:58:40.842Z,11.80
2018-05-17T07:01:08.875Z,10.70
2018-05-17T07:03:37.026Z,11.63
2018-05-17T07:06:05.094Z,11.03
2018-05-17T07:08:33.922Z,13.50
2018-05-17T07:11:02.104Z,13.40
2018-05-17T07:13:30.163Z,12.30
2018-05-17T07:15:58.191Z,11.93
2018-05-17T07:18:27.253Z,12.77
2018-05-17T07:20:55.207Z,10.43
2018-05-17T07:23:23.310Z,12.63
2018-05-17T07:25:52.728Z,12.53
2018-05-17T07:28:21.533Z,11.03
2018-05-17T07:30:50.397Z,11.57
2018-05-17T07:33:18.434Z,10.63
2018-05-17T07:35:46.455Z,10.47
2018-05-17T07:38:15.398Z,11.47
2018-05-17T07:40:43.494Z,10.73
2018-05-17T07:43:12.031Z,10.57
2018-05-17T07:45:40.042Z,10.87
2018-05-17T07:48:08.085Z,11.67
2018-05-17T07:50:36.186Z,11.47
2018-05-17T07:53:04.188Z,11.00
2018-05-17T07:55:33.120Z,10.97
2018-05-17T07:58:02.110Z,19.98
2018-05-17T08:00:30.328Z,8.27
2018-05-17T08:02:58.363Z,11.27
2018-05-17T08:05:26.452Z,8.70
2018-05-17T08:07:54.501Z,9.63
2018-05-17T08:10:22.543Z,10.87
2018-05-17T08:12:50.564Z,6.62
2018-05-17T08:15:18.594Z,6.90
2018-05-17T08:17:46.608Z,4.87
2018-05-17T08:20:14.680Z,5.20
2018-05-17T08:22:42.704Z,5.37
2018-05-17T08:25:10.714Z,7.90
2018-05-17T08:27:38.731Z,7.97
2018-05-17T08:30:07.631Z,6.80
2018-05-17T08:32:36.481Z,8.85
2018-05-17T08:35:04.647Z,5.55
2018-05-17T08:37:32.702Z,6.33
2018-05-17T08:40:00.755Z,5.07
2018-05-17T08:42:28.857Z,4.67
2018-05-17T08:44:57.038Z,5.57
2018-05-17T08:47:25.055Z,8.27
2018-05-17T08:49:53.802Z,6.90
2018-05-17T08:52:21.858Z,7.23
2018-05-17T08:54:49.927Z,6.43
2018-05-17T08:57:18.029Z,7.87
2018-05-17T08:59:46.173Z,9.60
2018-05-17T09:02:14.226Z,8.93
2018-05-17T09:04:42.287Z,6.53
2018-05-17T09:07:10.370Z,7.73
2018-05-17T09:09:38.397Z,5.87
2018-05-17T09:12:06.388Z,6.93
2018-05-17T09:14:35.203Z,4.80
2018-05-17T09:17:03.346Z,6.80
2018-05-17T09:19:32.089Z,7.47
2018-05-17T09:22:00.136Z,6.73
2018-05-17T09:24:28.187Z,5.30
2018-05-17T09:26:57.109Z,6.00
2018-05-17T09:29:25.164Z,4.93
2018-05-17T09:31:53.191Z,5.07
2018-05-17T09:34:21.262Z,5.20
2018-05-17T09:36:49.370Z,6.30
2018-05-17T09:39:17.411Z,8.00
2018-05-17T09:41:45.479Z,5.17
2018-05-17T09:44:13.631Z,7.33
2018-05-17T09:46:41.684Z,5.07
2018-05-17T09:49:09.732Z,4.33
2018-05-17T09:51:37.773Z,5.53
2018-05-17T09:54:05.917Z,7.60
2018-05-17T09:56:33.953Z,6.40
2018-05-17T09:59:02.006Z,6.20
2018-05-17T10:01:30.851Z,6.63
2018-05-17T10:03:58.909Z,6.03
2018-05-17T10:06:26.930Z,6.23
2018-05-17T10:08:55.781Z,6.33
2018-05-17T10:11:23.933Z,7.10
2018-05-17T10:13:51.938Z,5.20
2018-05-17T10:16:20.006Z,5.27
2018-05-17T10:18:48.078Z,6.90
2018-05-17T10:21:16.162Z,6.33
2018-05-17T10:23:44.207Z,6.60
2018-05-17T10:26:12.348Z,8.03
2018-05-17T10:28:40.444Z,7.73
2018-05-17T10:31:08.506Z,6.23
2018-05-17T10:33:36.519Z,6.47
2018-05-17T10:36:04.572Z,7.10
2018-05-17T10:38:32.670Z,6.73
2018-05-17T10:41:00.747Z,7.90
2018-05-17T10:43:28.764Z,6.63
2018-05-17T10:45:56.857Z,7.20
2018-05-17T10:48:24.923Z,8.70
2018-05-17T10:50:53.024Z,7.83
2018-05-17T10:53:21.051Z,6.67
2018-05-17T10:55:49.115Z,5.47
2018-05-17T10:58:17.235Z,7.80
2018-05-17T11:00:45.311Z,6.97
2018-05-17T11:03:13.400Z,7.43
2018-05-17T11:05:42.226Z,6.82
2018-05-17T11:08:10.335Z,8.87
2018-05-17T11:10:38.402Z,6.23
2018-05-17T11:13:06.451Z,7.00
2018-05-17T11:15:34.566Z,6.57
2018-05-17T11:18:02.618Z,7.47
2018-05-17T11:20:30.639Z,8.15
2018-05-17T11:22:59.442Z,6.47
2018-05-17T11:25:27.463Z,6.85
2018-05-17T11:27:55.491Z,6.80
2018-05-17T11:30:23.517Z,6.77
2018-05-17T11:32:51.562Z,7.05
2018-05-17T11:35:19.573Z,8.77
2018-05-17T11:37:48.456Z,10.57
2018-05-17T11:40:17.302Z,12.57
2018-05-17T11:42:45.387Z,9.90
2018-05-17T11:45:13.520Z,11.47
2018-05-17T11:47:41.502Z,10.80
2018-05-17T11:50:09.614Z,12.07
2018-05-17T11:52:37.627Z,11.53
2018-05-17T11:55:05.645Z,11.43
2018-05-17T11:57:33.702Z,10.57
2018-05-17T12:00:01.783Z,10.87
2018-05-17T12:02:29.802Z,10.48
2018-05-17T12:04:58.560Z,8.83
2018-05-17T12:07:26.679Z,9.48
2018-05-17T12:09:54.713Z,6.68
2018-05-17T12:12:22.790Z,8.73
2018-05-17T12:14:50.850Z,7.53
2018-05-17T12:17:18.834Z,7.20
2018-05-17T12:19:46.830Z,8.90
2018-05-17T12:22:14.881Z,8.40
2018-05-17T12:24:43.653Z,10.30
2018-05-17T12:27:11.694Z,10.43
2018-05-17T12:29:39.780Z,8.83
2018-05-17T12:32:07.987Z,11.03
2018-05-17T12:34:36.779Z,10.83
2018-05-17T12:37:05.653Z,11.03
2018-05-17T12:39:34.446Z,11.87
2018-05-17T12:42:02.550Z,11.57
2018-05-17T12:44:30.661Z,11.00
2018-05-17T12:46:58.703Z,10.10
2018-05-17T12:49:26.741Z,11.80
2018-05-17T12:51:55.581Z,11.15
2018-05-17T12:54:23.809Z,12.95
2018-05-17T12:56:52.590Z,11.87
2018-05-17T12:59:20.732Z,12.25
2018-05-17T13:01:48.786Z,10.57
2018-05-17T13:04:16.833Z,11.23
2018-05-17T13:06:45.708Z,10.88
2018-05-17T13:09:14.577Z,13.23
2018-05-17T13:11:42.678Z,8.82
2018-05-17T13:14:11.475Z,7.87
2018-05-17T13:16:40.381Z,10.30
2018-05-17T13:19:08.408Z,8.80
2018-05-17T13:21:36.487Z,9.40
2018-05-17T13:24:04.609Z,9.10
2018-05-17T13:26:32.746Z,10.40
2018-05-17T13:29:01.629Z,10.63
2018-05-17T13:31:30.461Z,9.82
2018-05-17T13:33:58.451Z,9.70
2018-05-17T13:36:26.462Z,9.33
2018-05-17T13:38:55.365Z,9.15
2018-05-17T13:41:24.115Z,8.20
2018-05-17T13:43:52.208Z,8.93
2018-05-17T13:46:20.336Z,8.30
2018-05-17T13:48:48.405Z,10.80
2018-05-17T13:51:16.494Z,12.07
2018-05-17T13:53:44.620Z,11.63
2018-05-17T13:56:13.630Z,10.70
2018-05-17T13:58:41.649Z,10.13
2018-05-17T14:01:09.806Z,12.70
2018-05-17T14:03:37.891Z,12.30
2018-05-17T14:06:05.982Z,12.47
2018-05-17T14:08:34.033Z,12.90
2018-05-17T14:11:02.151Z,11.38
2018-05-17T14:13:30.974Z,11.82
2018-05-17T14:15:59.063Z,11.63
2018-05-17T14:18:28.081Z,10.77
2018-05-17T14:20:56.179Z,8.68
2018-05-17T14:23:24.235Z,8.00
2018-05-17T14:25:53.059Z,11.47
2018-05-17T14:28:21.126Z,8.73
2018-05-17T14:30:49.257Z,6.37
2018-05-17T14:33:17.315Z,8.23
2018-05-17T14:35:45.385Z,8.60
2018-05-17T14:38:13.407Z,7.60
2018-05-17T14:40:41.510Z,6.90
2018-05-17T14:43:09.545Z,6.63
2018-05-17T14:45:38.347Z,6.12
2018-05-17T14:48:06.366Z,3.80
2018-05-17T14:50:34.404Z,4.60
2018-05-17T14:53:02.495Z,4.17
2018-05-17T14:55:30.529Z,3.87
2018-05-17T14:57:58.562Z,3.30
2018-05-17T15:00:26.698Z,3.17
2018-05-17T15:02:54.766Z,4.90
2018-05-17T15:05:22.859Z,6.00
2018-05-17T15:07:50.933Z,5.63
2018-05-17T15:10:19.021Z,7.23
2018-05-17T15:12:47.233Z,6.90
2018-05-17T15:15:15.333Z,9.10
2018-05-17T15:17:43.382Z,7.43
2018-05-17T15:20:11.514Z,7.33
2018-05-17T15:22:39.598Z,6.97
2018-05-17T15:25:08.505Z,9.27
2018-05-17T15:27:37.421Z,9.67
2018-05-17T15:30:05.464Z,9.27
2018-05-17T15:32:34.260Z,12.10
2018-05-17T15:35:03.127Z,9.53
2018-05-17T15:37:31.137Z,9.20
2018-05-17T15:39:59.170Z,8.37
2018-05-17T15:42:27.326Z,9.23
2018-05-17T15:44:55.738Z,9.10
2018-05-17T15:47:24.538Z,9.33
2018-05-17T15:49:53.421Z,8.87
2018-05-17T15:52:22.174Z,10.10
2018-05-17T15:54:50.353Z,8.70
2018-05-17T15:57:18.404Z,11.07
2018-05-17T15:59:46.452Z,11.77
2018-05-17T16:02:14.553Z,9.93
2018-05-17T16:04:42.630Z,11.17
2018-05-17T16:07:10.679Z,11.97
2018-05-17T16:09:38.749Z,11.07
2018-05-17T16:12:06.815Z,10.87
2018-05-17T16:14:35.764Z,11.40
2018-05-17T16:17:04.547Z,9.87
2018-05-17T16:19:32.574Z,9.57
2018-05-17T16:22:00.697Z,9.10
2018-05-17T16:24:29.557Z,11.73
2018-05-17T16:26:57.646Z,12.10
2018-05-17T16:29:25.714Z,9.70
2018-05-17T16:31:53.706Z,9.17
2018-05-17T16:34:22.549Z,10.20
2018-05-17T16:36:51.356Z,10.67
2018-05-17T16:39:19.506Z,11.17
2018-05-17T16:41:47.647Z,10.70
2018-05-17T16:44:16.430Z,11.87
2018-05-17T16:46:45.262Z,11.93
2018-05-17T16:49:13.336Z,11.13
2018-05-17T16:51:41.330Z,9.93
2018-05-17T16:54:10.370Z,11.80
2018-05-17T16:56:38.474Z,13.10
2018-05-17T16:59:06.495Z,12.27
2018-05-17T17:01:35.361Z,11.57
2018-05-17T17:04:03.503Z,7.53
2018-05-17T17:06:31.579Z,7.13
2018-05-17T17:08:59.676Z,6.63
2018-05-17T17:11:27.714Z,7.77
2018-05-17T17:13:55.852Z,9.27
2018-05-17T17:16:24.663Z,8.17
2018-05-17T17:18:52.810Z,6.93
2018-05-17T17:21:21.646Z,7.30
2018-05-17T17:23:49.845Z,6.17
2018-05-17T17:26:17.925Z,6.87
2018-05-17T17:28:46.010Z,7.47
2018-05-17T17:31:14.085Z,8.47
2018-05-17T17:33:42.151Z,7.63
2018-05-17T17:36:10.227Z,7.43
2018-05-17T17:38:39.043Z,6.17
2018-05-17T17:41:07.246Z,5.50
2018-05-17T17:43:35.282Z,5.50
2018-05-17T17:46:04.118Z,6.87
2018-05-17T17:48:32.175Z,5.97
2018-05-17T17:51:00.219Z,6.67
2018-05-17T17:53:28.356Z,10.83
2018-05-17T17:55:56.440Z,15.23
2018-05-17T17:58:24.545Z,11.57
2018-05-17T18:00:52.562Z,14.43
2018-05-17T18:03:20.630Z,14.93
2018-05-17T18:05:48.770Z,12.10
2018-05-17T18:08:16.833Z,9.10
2018-05-17T18:10:44.986Z,9.43
2018-05-17T18:13:13.842Z,8.77
2018-05-17T18:15:41.872Z,7.73
2018-05-17T18:18:11.773Z,9.60
2018-05-17T18:20:41.400Z,9.30
2018-05-17T18:23:09.526Z,9.57
2018-05-17T18:25:37.645Z,8.43
2018-05-17T18:28:05.642Z,8.53
2018-05-17T18:30:33.774Z,8.23
2018-05-17T18:33:02.585Z,9.97
2018-05-17T18:35:30.673Z,8.80
2018-05-17T18:37:58.783Z,8.60
2018-05-17T18:40:26.853Z,8.27
2018-05-17T18:42:54.998Z,8.47
2018-05-17T18:45:23.095Z,8.80
2018-05-17T18:47:51.249Z,9.33
2018-05-17T18:50:19.263Z,9.10
2018-05-17T18:52:48.113Z,10.03
2018-05-17T18:55:22.855Z,10.50
2018-05-17T18:57:45.109Z,10.73
2018-05-17T19:00:14.099Z,9.93
2018-05-17T19:02:42.273Z,10.27
2018-05-17T19:05:10.310Z,10.30
2018-05-17T19:07:38.305Z,9.50
2018-05-17T19:10:06.391Z,10.43
2018-05-17T19:12:35.226Z,9.33
2018-05-17T19:15:03.342Z,9.10
2018-05-17T19:17:31.398Z,9.60
2018-05-17T19:19:59.388Z,10.97
2018-05-17T19:22:27.397Z,10.07
2018-05-17T19:24:55.554Z,11.57
2018-05-17T19:27:24.314Z,10.57
2018-05-17T19:29:52.449Z,11.20
2018-05-17T19:32:20.601Z,9.30
2018-05-17T19:34:48.725Z,9.70
2018-05-17T19:37:16.940Z,9.13
2018-05-17T19:39:45.702Z,8.03
2018-05-17T19:42:14.529Z,9.77
2018-05-17T19:44:42.617Z,10.00
2018-05-17T19:47:10.740Z,10.97
2018-05-17T19:49:38.757Z,9.77
2018-05-17T19:52:06.825Z,9.33
2018-05-17T19:54:34.941Z,10.47
2018-05-17T19:57:02.961Z,11.37
2018-05-17T19:59:31.072Z,10.67
2018-05-17T20:01:59.156Z,10.17
2018-05-17T20:04:27.256Z,10.20
2018-05-17T20:06:56.076Z,10.40
2018-05-17T20:09:24.111Z,10.23
2018-05-17T20:11:52.973Z,9.60
2018-05-17T20:14:20.987Z,8.43
2018-05-17T20:16:49.813Z,9.17
2018-05-17T20:19:17.886Z,10.23
2018-05-17T20:21:46.057Z,7.60
2018-05-17T20:24:14.174Z,3.90
2018-05-17T20:26:42.240Z,4.27
2018-05-17T20:29:10.315Z,4.30
2018-05-17T20:31:38.367Z,4.70
2018-05-17T20:34:06.491Z,5.70
2018-05-17T20:36:34.651Z,5.30
2018-05-17T20:39:03.629Z,7.07
2018-05-17T20:41:31.673Z,5.63
2018-05-17T20:43:59.700Z,7.30
2018-05-17T20:46:27.738Z,7.83
2018-05-17T20:48:55.778Z,7.97
2018-05-17T20:51:23.817Z,8.90
2018-05-17T20:53:51.922Z,8.23
2018-05-17T20:56:20.026Z,8.87
2018-05-17T20:58:48.125Z,9.20
2018-05-17T21:01:16.211Z,9.07
2018-05-17T21:03:44.324Z,8.53
2018-05-17T21:06:12.340Z,8.97
2018-05-17T21:08:41.138Z,8.93
2018-05-17T21:11:09.187Z,8.30
2018-05-17T21:13:38.071Z,9.23
2018-05-17T21:16:06.154Z,10.20
2018-05-17T21:18:35.014Z,12.63
2018-05-17T21:21:03.137Z,12.33
2018-05-17T21:23:31.206Z,12.30
2018-05-17T21:25:59.990Z,11.23
2018-05-17T21:28:28.898Z,12.30
2018-05-17T21:30:57.062Z,10.90
2018-05-17T21:33:25.052Z,12.00
2018-05-17T21:35:53.133Z,14.20
2018-05-17T21:38:21.167Z,13.80
2018-05-17T21:40:50.065Z,14.17
2018-05-17T21:43:18.848Z,14.30
2018-05-17T21:45:47.759Z,14.50
2018-05-17T21:48:15.854Z,14.10
2018-05-17T21:50:43.895Z,14.80
2018-05-17T21:53:11.963Z,15.10
2018-05-17T21:55:40.058Z,15.13
2018-05-17T21:58:08.962Z,15.93
2018-05-17T22:00:37.043Z,14.23
2018-05-17T22:03:05.099Z,14.40
2018-05-17T22:05:33.115Z,13.80
2018-05-17T22:08:02.096Z,13.30
2018-05-17T22:10:30.130Z,12.00
2018-05-17T22:12:58.238Z,11.80
2018-05-17T22:15:26.364Z,12.43
2018-05-17T22:17:54.482Z,12.07
2018-05-17T22:20:22.565Z,13.47
2018-05-17T22:22:50.678Z,12.60
2018-05-17T22:25:18.666Z,12.90
2018-05-17T22:27:46.714Z,13.80
2018-05-17T22:30:14.751Z,15.07
2018-05-17T22:32:42.827Z,16.60
2018-05-17T22:35:10.937Z,16.73
2018-05-17T22:37:39.069Z,15.80
2018-05-17T22:40:07.056Z,15.97
2018-05-17T22:42:35.973Z,15.93
2018-05-17T22:45:04.070Z,14.90
2018-05-17T22:47:32.100Z,14.80
2018-05-17T22:50:00.961Z,14.40
2018-05-17T22:52:29.058Z,14.23
2018-05-17T22:54:57.834Z,13.50
2018-05-17T22:57:38.556Z,13.37
2018-05-17T23:00:06.705Z,14.03
2018-05-17T23:02:34.812Z,14.27
2018-05-17T23:05:02.855Z,13.60
2018-05-17T23:07:30.852Z,13.30
2018-05-17T23:09:58.921Z,12.30
2018-05-17T23:12:26.926Z,12.80
2018-05-17T23:14:54.959Z,14.67
2018-05-17T23:17:22.969Z,13.03
2018-05-17T23:19:50.991Z,12.33
2018-05-17T23:22:31.029Z,12.67
2018-05-17T23:24:59.063Z,12.40
2018-05-17T23:27:27.089Z,13.10
2018-05-17T23:29:55.110Z,12.43
2018-05-17T23:32:23.156Z,13.87
2018-05-17T23:34:51.307Z,14.30
2018-05-17T23:37:21.517Z,14.80
2018-05-17T23:39:49.725Z,15.97
2018-05-17T23:42:17.808Z,14.57
2018-05-17T23:44:45.910Z,14.73
2018-05-17T23:47:14.805Z,16.03
2018-05-17T23:49:43.761Z,15.57
2018-05-17T23:52:11.855Z,16.20
2018-05-17T23:54:40.813Z,15.83
2018-05-17T23:57:08.942Z,16.37
2018-05-17T23:59:37.819Z,16.20
